createdAt,value
2023-03-22T00:00:01.514Z,11.16
2023-03-22T00:15:02.134Z,11.16
2023-03-22T00:30:01.788Z,11.14
2023-03-22T00:45:02.433Z,11.17
2023-03-22T01:00:02.042Z,11.15
2023-03-22T01:15:01.679Z,11.22
2023-03-22T01:30:02.391Z,11.3
2023-03-22T01:45:02.065Z,11.3
2023-03-22T02:00:01.717Z,11.29
2023-03-22T02:15:02.310Z,11.32
2023-03-22T02:30:01.949Z,11.26
2023-03-22T02:45:01.586Z,11.28
2023-03-22T03:00:02.211Z,11.31
2023-03-22T03:15:01.889Z,11.33
2023-03-22T03:30:01.609Z,11.33
2023-03-22T03:45:02.268Z,11.37
2023-03-22T04:00:01.924Z,11.35
2023-03-22T04:15:01.568Z,11.36
2023-03-22T04:30:02.223Z,11.41
2023-03-22T04:45:01.809Z,11.37
2023-03-22T05:00:02.468Z,11.36
2023-03-22T05:15:02.124Z,11.22
2023-03-22T05:30:02.278Z,11.14
2023-03-22T05:45:01.871Z,11.22
2023-03-22T06:00:02.546Z,11.07
2023-03-22T06:15:02.252Z,11.06
2023-03-22T06:30:01.895Z,11.12
2023-03-22T06:45:02.570Z,11.36
2023-03-22T07:00:02.211Z,11.44
2023-03-22T07:15:01.874Z,11.52
2023-03-22T07:30:01.571Z,11.69
2023-03-22T07:45:02.307Z,11.73
2023-03-22T08:00:02.067Z,11.83
2023-03-22T08:15:01.742Z,12.06
2023-03-22T08:30:02.504Z,12.19
2023-03-22T08:45:02.130Z,12.46
2023-03-22T09:00:01.749Z,12.8
2023-03-22T09:15:02.464Z,12.9
2023-03-22T09:30:02.177Z,13.07
2023-03-22T09:45:01.888Z,13.13
2023-03-22T10:00:02.599Z,13.35
2023-03-22T10:15:02.236Z,13.64
2023-03-22T10:30:01.939Z,13.62
2023-03-22T10:45:01.678Z,13.68
2023-03-22T11:00:02.348Z,13.85
2023-03-22T11:15:01.998Z,13.96
2023-03-22T11:30:01.709Z,14.23
2023-03-22T11:45:02.347Z,14.32
2023-03-22T12:00:02.018Z,14.35
2023-03-22T12:15:01.729Z,14.32
2023-03-22T12:30:02.389Z,14.29
2023-03-22T12:45:05.528Z,14.26
2023-03-22T13:00:02.552Z,14.03
2023-03-22T13:15:02.204Z,13.77
2023-03-22T13:30:01.919Z,13.63
2023-03-22T13:45:01.587Z,13.62
2023-03-22T14:00:11.286Z,13.61
2023-03-22T14:15:02.167Z,13.71
2023-03-22T15:00:01.833Z,13.77
2023-03-22T15:15:01.868Z,13.89
2023-03-22T15:30:02.479Z,13.86
2023-03-22T15:45:02.117Z,13.75
2023-03-22T16:00:01.780Z,13.66
2023-03-22T16:15:02.393Z,13.59
2023-03-22T16:30:02.037Z,13.58
2023-03-22T16:45:01.630Z,13.43
2023-03-22T17:00:02.297Z,13.61
2023-03-22T17:15:01.955Z,13.51
2023-03-22T17:30:01.700Z,13.38
2023-03-22T17:45:02.403Z,13.29
2023-03-22T18:00:02.015Z,13.23
2023-03-22T18:15:01.696Z,13.16
2023-03-22T18:30:02.384Z,13.16
2023-03-22T18:45:01.999Z,13.24
2023-03-22T19:00:01.702Z,13.14
2023-03-22T19:15:18.019Z,13.2
2023-03-22T19:30:01.620Z,13.23
2023-03-22T19:45:02.294Z,13.26
2023-03-22T20:15:01.547Z,13.32
2023-03-22T20:30:02.225Z,13.3
2023-03-22T20:45:01.900Z,13.19
2023-03-22T21:00:01.616Z,13.27
2023-03-22T21:15:02.220Z,13.35
2023-03-22T21:30:01.895Z,13.28
2023-03-22T21:45:02.532Z,13.15
2023-03-22T22:00:02.192Z,13.1
2023-03-22T22:15:02.100Z,12.95
2023-03-22T22:30:01.761Z,12.98
2023-03-22T22:45:02.412Z,12.76
2023-03-22T23:00:02.058Z,12.71
2023-03-22T23:15:01.706Z,12.62
2023-03-22T23:30:02.365Z,12.58
2023-03-22T23:45:02.110Z,12.57
